Time;durP1;ratioP1;P1;durP2;ratioP2;P2;SDS_P1;SDS_P2;PMS_P1;PMS_P2;Temp;Humidity;BMP_temperature;BMP_pressure;BME280_temperature;BME280_humidity;BME280_pressure;Samples;Min_cycle;Max_cycle;Signal;HPM_P1;HPM_P2
2024/02/19 00:01:38;;;;;;;2.97;1.00;;;10.20;99.90;;;;;;5011698;28;20030;-49
2024/02/19 00:04:04;;;;;;;0.60;0.60;;;10.10;99.90;;;;;;5011591;28;20017;-47
2024/02/19 00:06:29;;;;;;;0.68;0.68;;;10.10;99.90;;;;;;5011279;28;20029;-45
2024/02/19 00:08:55;;;;;;;0.68;0.60;;;10.10;99.90;;;;;;5011591;28;20049;-45
2024/02/19 00:11:20;;;;;;;2.95;0.80;;;10.10;99.90;;;;;;5010313;28;20399;-44
2024/02/19 00:13:46;;;;;;;0.50;0.50;;;10.20;99.90;;;;;;5011719;28;20094;-48
2024/02/19 00:16:11;;;;;;;6.55;4.47;;;10.20;99.90;;;;;;5011344;28;20030;-47
2024/02/19 00:18:37;;;;;;;2.35;1.70;;;10.20;99.90;;;;;;5011368;28;20458;-52
2024/02/19 00:21:03;;;;;;;0.70;0.70;;;10.20;99.90;;;;;;5010466;28;20022;-46
2024/02/19 00:23:29;;;;;;;0.77;0.77;;;10.20;99.90;;;;;;5011362;28;20353;-49
2024/02/19 00:25:55;;;;;;;0.70;0.70;;;10.20;99.90;;;;;;5011325;28;20026;-49
2024/02/19 00:28:21;;;;;;;0.50;0.50;;;10.10;99.90;;;;;;5012838;28;20048;-43
2024/02/19 00:30:46;;;;;;;0.77;0.60;;;10.10;99.90;;;;;;5014112;28;20034;-49
2024/02/19 00:33:12;;;;;;;0.73;0.73;;;10.20;99.90;;;;;;5015244;28;20037;-48
2024/02/19 00:35:38;;;;;;;0.90;0.60;;;10.10;99.90;;;;;;5015215;28;20026;-47
2024/02/19 00:38:04;;;;;;;0.70;0.70;;;10.20;99.90;;;;;;5015145;28;20042;-48
2024/02/19 00:40:29;;;;;;;0.70;0.70;;;10.20;99.90;;;;;;5015186;28;20026;-47
2024/02/19 00:42:55;;;;;;;0.60;0.60;;;10.20;99.90;;;;;;5015193;28;20104;-48
2024/02/19 00:45:21;;;;;;;0.70;0.70;;;10.20;99.90;;;;;;5014786;28;20026;-49
2024/02/19 00:47:46;;;;;;;0.73;0.73;;;10.20;99.90;;;;;;5015028;28;20037;-50
2024/02/19 00:50:12;;;;;;;0.68;0.68;;;10.20;99.90;;;;;;5015038;28;20044;-50
2024/02/19 00:52:39;;;;;;;0.80;0.80;;;10.20;99.90;;;;;;5014649;28;20033;-50
2024/02/19 00:55:05;;;;;;;2.53;0.80;;;10.10;99.90;;;;;;5014943;28;20037;-46
2024/02/19 00:57:31;;;;;;;0.77;0.77;;;10.10;99.90;;;;;;5014740;28;20025;-50
2024/02/19 00:59:56;;;;;;;1.70;0.90;;;10.10;99.90;;;;;;5014916;28;20032;-46
2024/02/19 01:02:23;;;;;;;0.88;0.88;;;10.10;99.90;;;;;;5014826;28;20088;-49
2024/02/19 01:04:49;;;;;;;0.80;0.80;;;10.20;99.90;;;;;;5014705;28;20026;-44
2024/02/19 01:07:15;;;;;;;0.70;0.70;;;10.20;99.90;;;;;;5014725;28;20025;-49
2024/02/19 01:09:41;;;;;;;0.95;0.90;;;10.20;99.90;;;;;;5014934;28;20022;-49
2024/02/19 01:12:08;;;;;;;0.63;0.63;;;10.10;99.90;;;;;;5015259;28;20096;-50
2024/02/19 01:14:33;;;;;;;0.65;0.65;;;10.20;99.90;;;;;;5015277;28;20022;-44
2024/02/19 01:16:59;;;;;;;1.38;1.00;;;10.20;99.90;;;;;;5015391;28;20061;-47
2024/02/19 01:19:24;;;;;;;0.70;0.70;;;10.20;99.90;;;;;;5013475;28;20030;-45
2024/02/19 01:21:50;;;;;;;1.02;0.80;;;10.20;99.90;;;;;;5014463;28;20116;-51
2024/02/19 01:24:16;;;;;;;0.82;0.80;;;10.20;99.90;;;;;;5014077;28;20018;-46
2024/02/19 01:26:41;;;;;;;1.38;0.90;;;10.20;99.90;;;;;;5014168;28;20034;-45
2024/02/19 01:29:07;;;;;;;0.80;0.80;;;10.20;99.90;;;;;;5012684;28;20517;-46
2024/02/19 01:31:32;;;;;;;1.73;1.15;;;10.30;99.90;;;;;;5013043;28;20113;-46
2024/02/19 01:33:58;;;;;;;2.65;1.30;;;10.20;99.90;;;;;;5012989;28;20109;-50
2024/02/19 01:36:24;;;;;;;1.10;1.10;;;10.20;99.90;;;;;;5013987;28;20022;-51
2024/02/19 01:38:49;;;;;;;1.75;1.23;;;10.20;99.90;;;;;;5013517;28;20033;-50
2024/02/19 01:41:15;;;;;;;1.38;1.27;;;10.20;99.90;;;;;;5014096;28;20025;-48
2024/02/19 01:43:40;;;;;;;4.57;1.50;;;10.20;99.90;;;;;;5013780;28;20028;-49
2024/02/19 01:46:06;;;;;;;1.30;1.20;;;10.20;99.90;;;;;;5014242;28;20495;-51
2024/02/19 01:48:32;;;;;;;2.55;1.55;;;10.20;99.90;;;;;;5013995;28;20032;-49
2024/02/19 01:50:58;;;;;;;2.00;1.30;;;10.20;99.90;;;;;;5013992;28;20017;-48
2024/02/19 01:53:24;;;;;;;1.30;1.30;;;10.30;99.90;;;;;;5013854;28;20072;-49
2024/02/19 01:55:51;;;;;;;1.40;1.30;;;10.30;99.90;;;;;;5013808;28;20030;-50
2024/02/19 01:58:17;;;;;;;1.42;1.38;;;10.30;99.90;;;;;;5013741;28;20076;-48
2024/02/19 02:00:43;;;;;;;3.38;1.63;;;10.30;99.90;;;;;;5013526;28;20030;-47
2024/02/19 02:03:14;;;;;;;1.75;1.65;;;10.40;99.90;;;;;;5013617;28;20052;-50
2024/02/19 02:05:40;;;;;;;5.65;1.88;;;10.40;99.90;;;;;;5013465;28;20026;-45
2024/02/19 02:08:06;;;;;;;4.13;2.00;;;10.50;99.90;;;;;;5013450;28;20080;-50
2024/02/19 02:10:31;;;;;;;3.55;1.77;;;10.50;99.90;;;;;;5013620;28;20030;-50
2024/02/19 02:12:57;;;;;;;1.67;1.58;;;10.50;99.90;;;;;;5013440;28;20057;-48
2024/02/19 02:15:22;;;;;;;2.45;2.20;;;10.50;99.90;;;;;;5013236;28;20054;-44
2024/02/19 02:17:48;;;;;;;6.53;2.42;;;10.50;99.90;;;;;;5013338;28;20037;-46
2024/02/19 02:20:13;;;;;;;3.40;2.15;;;10.50;99.90;;;;;;5013335;28;20038;-46
2024/02/19 02:22:42;;;;;;;4.63;2.45;;;10.50;99.90;;;;;;5013145;28;20034;-48
2024/02/19 02:25:07;;;;;;;1.33;1.23;;;10.50;99.90;;;;;;5013268;28;20021;-50
2024/02/19 02:27:33;;;;;;;1.98;1.85;;;10.50;99.90;;;;;;5012727;28;20037;-46
2024/02/19 02:29:58;;;;;;;6.05;2.10;;;10.50;99.90;;;;;;5012780;28;20018;-50
2024/02/19 02:32:24;;;;;;;2.10;1.90;;;10.50;99.90;;;;;;5012717;28;20101;-49
2024/02/19 02:34:50;;;;;;;4.38;2.38;;;10.60;99.90;;;;;;5013088;28;20033;-50
2024/02/19 02:37:15;;;;;;;1.80;1.60;;;10.60;99.90;;;;;;5012778;28;20030;-44
2024/02/19 02:39:41;;;;;;;6.68;2.10;;;10.70;99.90;;;;;;5012977;28;20026;-46
2024/02/19 02:42:07;;;;;;;6.22;2.28;;;10.70;99.90;;;;;;5012761;28;20029;-45
2024/02/19 02:44:33;;;;;;;3.65;2.20;;;10.60;99.90;;;;;;5012577;28;20029;-49
2024/02/19 02:46:58;;;;;;;2.55;1.73;;;10.70;99.90;;;;;;5011740;28;20518;-49
2024/02/19 02:49:24;;;;;;;3.55;1.40;;;10.70;99.90;;;;;;5012812;28;20053;-48
2024/02/19 02:51:49;;;;;;;3.63;2.17;;;10.60;99.90;;;;;;5011897;28;20105;-47
2024/02/19 02:54:15;;;;;;;5.63;1.77;;;10.70;99.90;;;;;;5012600;28;20491;-49
2024/02/19 02:56:40;;;;;;;4.22;1.65;;;10.70;99.90;;;;;;5012936;28;20029;-49
2024/02/19 02:59:06;;;;;;;5.80;1.83;;;10.70;99.90;;;;;;5012542;28;20034;-46
2024/02/19 03:01:32;;;;;;;3.40;1.30;;;10.70;99.90;;;;;;5012700;28;20371;-47
2024/02/19 03:03:57;;;;;;;3.05;1.35;;;10.70;99.90;;;;;;5012502;28;20483;-47
2024/02/19 03:06:23;;;;;;;3.38;2.13;;;10.70;99.90;;;;;;5011027;28;20028;-51
2024/02/19 03:08:48;;;;;;;4.05;1.20;;;10.80;99.90;;;;;;5012406;28;20046;-50
2024/02/19 03:11:15;;;;;;;2.58;1.00;;;10.80;99.90;;;;;;5012175;28;20034;-48
2024/02/19 03:13:40;;;;;;;2.83;1.38;;;10.70;99.90;;;;;;5012177;28;20080;-48
2024/02/19 03:16:06;;;;;;;2.42;1.00;;;10.80;99.90;;;;;;5012291;28;20466;-46
2024/02/19 03:18:33;;;;;;;4.63;1.10;;;10.70;99.90;;;;;;5012358;28;20037;-48
2024/02/19 03:20:59;;;;;;;2.83;1.05;;;10.80;99.90;;;;;;5012356;28;20050;-46
2024/02/19 03:23:25;;;;;;;2.22;1.00;;;10.80;99.90;;;;;;5011937;28;20034;-49
2024/02/19 03:25:50;;;;;;;1.25;1.15;;;10.80;99.90;;;;;;5010542;28;20403;-45
2024/02/19 03:28:16;;;;;;;2.13;1.05;;;10.70;99.90;;;;;;5012084;28;20025;-47
2024/02/19 03:30:42;;;;;;;1.73;1.10;;;10.80;99.90;;;;;;5011859;28;20076;-56
2024/02/19 03:33:08;;;;;;;6.97;0.93;;;10.80;99.90;;;;;;5011959;28;20088;-46
2024/02/19 03:35:33;;;;;;;8.20;1.20;;;10.70;99.90;;;;;;5011779;28;20030;-47
2024/02/19 03:37:59;;;;;;;2.60;0.80;;;10.60;99.90;;;;;;5012109;28;20100;-46
2024/02/19 03:40:25;;;;;;;2.47;0.82;;;10.60;99.90;;;;;;5012036;28;20029;-45
2024/02/19 03:42:51;;;;;;;1.27;0.80;;;10.60;99.90;;;;;;5011865;28;20021;-47
2024/02/19 03:45:18;;;;;;;1.75;0.75;;;10.70;99.90;;;;;;5011182;28;20054;-45
2024/02/19 03:47:43;;;;;;;3.45;0.75;;;10.60;99.90;;;;;;5012064;28;20018;-44
2024/02/19 03:50:09;;;;;;;2.00;1.10;;;10.60;99.90;;;;;;5011884;28;20072;-45
2024/02/19 03:52:35;;;;;;;2.20;0.85;;;10.60;99.90;;;;;;5011627;28;20455;-48
2024/02/19 03:55:00;;;;;;;3.10;0.90;;;10.50;99.90;;;;;;5011679;28;20022;-50
2024/02/19 03:57:27;;;;;;;3.08;1.10;;;10.50;99.90;;;;;;5011410;28;20041;-46
2024/02/19 03:59:53;;;;;;;1.63;0.93;;;10.50;99.90;;;;;;5011989;28;20049;-49
2024/02/19 04:02:19;;;;;;;4.00;0.77;;;10.60;99.90;;;;;;5011890;28;20064;-47
2024/02/19 04:04:45;;;;;;;0.90;0.90;;;10.50;99.90;;;;;;5012077;28;20122;-46
2024/02/19 04:07:11;;;;;;;1.75;0.73;;;10.50;99.90;;;;;;5011965;28;20165;-46
2024/02/19 04:09:38;;;;;;;4.35;2.05;;;10.50;99.90;;;;;;5011906;28;20097;-44
2024/02/19 04:12:07;;;;;;;3.03;0.43;;;10.50;99.90;;;;;;5012073;28;20550;-45
2024/02/19 04:14:33;;;;;;;1.45;0.60;;;10.40;99.90;;;;;;5011400;28;20049;-46
2024/02/19 04:16:59;;;;;;;1.33;0.60;;;10.50;99.90;;;;;;5011249;28;20491;-50
2024/02/19 04:19:25;;;;;;;2.42;0.65;;;10.50;99.90;;;;;;5011356;28;20578;-45
2024/02/19 04:21:50;;;;;;;2.28;1.27;;;10.40;99.90;;;;;;5011534;28;20040;-45
2024/02/19 04:24:16;;;;;;;1.63;0.60;;;10.40;99.90;;;;;;5027294;23;20133;-54
2024/02/19 04:26:42;;;;;;;1.30;0.70;;;10.40;99.90;;;;;;4991744;28;20458;-57
2024/02/19 04:29:09;;;;;;;3.70;1.45;;;10.40;99.90;;;;;;4991895;28;20022;-58
2024/02/19 04:31:35;;;;;;;5.15;0.93;;;10.40;99.90;;;;;;5007270;28;20488;-57
2024/02/19 04:34:01;;;;;;;2.08;0.70;;;10.50;99.90;;;;;;4992154;28;20026;-57
2024/02/19 04:36:26;;;;;;;1.15;0.60;;;10.50;99.90;;;;;;4990492;28;20129;-52
2024/02/19 04:38:52;;;;;;;4.93;1.02;;;10.50;99.90;;;;;;4990382;28;20447;-56
2024/02/19 04:41:17;;;;;;;2.58;1.15;;;10.50;99.90;;;;;;4990688;28;20030;-56
2024/02/19 04:43:43;;;;;;;1.50;0.68;;;10.50;99.90;;;;;;4991794;28;20411;-55
2024/02/19 04:46:08;;;;;;;2.05;0.70;;;10.40;99.90;;;;;;4991746;28;20105;-57
2024/02/19 04:48:35;;;;;;;1.63;0.82;;;10.40;99.90;;;;;;4993135;28;20100;-56
2024/02/19 04:51:01;;;;;;;4.78;0.93;;;10.40;99.90;;;;;;4991760;28;20022;-58
2024/02/19 04:53:26;;;;;;;4.63;0.98;;;10.40;99.90;;;;;;4991693;28;20033;-53
2024/02/19 04:55:52;;;;;;;4.80;0.90;;;10.40;99.90;;;;;;4991439;28;20108;-51
2024/02/19 04:58:18;;;;;;;2.13;0.80;;;10.30;99.90;;;;;;4991774;28;20022;-52
2024/02/19 05:00:43;;;;;;;4.15;0.90;;;10.40;99.90;;;;;;4991602;28;20045;-55
2024/02/19 05:03:09;;;;;;;2.33;0.73;;;10.30;99.90;;;;;;4991559;28;20081;-51
2024/02/19 05:05:35;;;;;;;2.45;0.95;;;10.30;99.90;;;;;;4989987;28;20050;-54
2024/02/19 05:08:01;;;;;;;2.83;1.00;;;10.30;99.90;;;;;;4990195;28;20024;-55
2024/02/19 05:10:26;;;;;;;2.92;1.10;;;10.30;99.90;;;;;;4989958;28;20026;-51
2024/02/19 05:12:52;;;;;;;2.63;0.90;;;10.40;99.90;;;;;;4990290;28;20061;-53
2024/02/19 05:15:17;;;;;;;4.10;1.00;;;10.30;99.90;;;;;;4993843;28;20094;-57
2024/02/19 05:17:43;;;;;;;3.47;1.00;;;10.30;99.90;;;;;;4994942;28;20499;-56
2024/02/19 05:20:10;;;;;;;3.33;1.15;;;10.30;99.90;;;;;;4995157;28;20033;-56
2024/02/19 05:22:36;;;;;;;4.63;1.13;;;10.30;99.90;;;;;;4994915;28;20026;-57
2024/02/19 05:25:02;;;;;;;2.95;1.10;;;10.20;99.90;;;;;;4994761;28;20415;-59
2024/02/19 05:27:28;;;;;;;1.98;0.82;;;10.20;99.90;;;;;;4995296;28;20396;-60
2024/02/19 05:29:53;;;;;;;4.82;1.10;;;10.20;99.90;;;;;;4993170;28;20459;-55
2024/02/19 05:32:19;;;;;;;7.25;1.10;;;10.20;99.90;;;;;;4995157;28;20177;-55
2024/02/19 05:34:44;;;;;;;2.75;1.15;;;10.20;99.90;;;;;;4992920;28;20476;-56
2024/02/19 05:37:10;;;;;;;6.10;1.63;;;10.10;99.90;;;;;;4994402;28;20038;-56
2024/02/19 05:39:35;;;;;;;3.35;1.30;;;10.10;99.90;;;;;;4994548;28;20034;-54
2024/02/19 05:42:01;;;;;;;4.00;1.48;;;10.10;99.90;;;;;;4993177;28;20030;-58
2024/02/19 05:44:26;;;;;;;4.40;1.08;;;10.10;99.90;;;;;;4994012;28;20456;-53
2024/02/19 05:46:52;;;;;;;5.05;1.17;;;10.10;99.90;;;;;;4994350;28;20088;-57
2024/02/19 05:49:18;;;;;;;3.22;1.65;;;10.00;99.90;;;;;;4993174;28;20035;-55
2024/02/19 05:51:44;;;;;;;4.72;1.20;;;10.10;99.90;;;;;;4994359;28;20018;-57
2024/02/19 05:54:10;;;;;;;4.85;1.52;;;10.10;99.90;;;;;;4994271;28;20041;-56
2024/02/19 05:56:35;;;;;;;9.18;1.63;;;10.00;99.90;;;;;;4992745;28;20089;-55
2024/02/19 05:59:01;;;;;;;8.45;1.85;;;10.10;99.90;;;;;;4992667;28;20034;-56
2024/02/19 06:01:26;;;;;;;6.47;1.33;;;10.10;99.90;;;;;;4992803;28;20026;-55
2024/02/19 06:03:52;;;;;;;3.05;1.23;;;10.10;99.90;;;;;;4992538;28;20380;-56
2024/02/19 06:06:17;;;;;;;8.98;1.70;;;10.10;99.90;;;;;;4993830;28;20018;-55
2024/02/19 06:08:43;;;;;;;2.20;1.20;;;10.10;99.90;;;;;;4992684;28;20026;-57
2024/02/19 06:11:08;;;;;;;3.70;1.33;;;10.10;99.90;;;;;;4993929;28;20469;-57
2024/02/19 06:13:34;;;;;;;6.78;1.85;;;10.10;99.90;;;;;;5008493;28;20400;-58
2024/02/19 06:15:59;;;;;;;7.38;1.42;;;10.10;99.90;;;;;;4993535;28;20041;-59
2024/02/19 06:18:25;;;;;;;9.68;2.05;;;10.10;99.90;;;;;;4993813;28;20022;-57
2024/02/19 06:20:51;;;;;;;7.60;1.30;;;10.10;99.90;;;;;;4994077;28;20032;-54
2024/02/19 06:23:17;;;;;;;5.32;1.10;;;10.00;99.90;;;;;;4992038;28;20077;-57
2024/02/19 06:25:43;;;;;;;3.25;1.40;;;10.10;99.90;;;;;;4993032;28;20030;-57
2024/02/19 06:28:09;;;;;;;6.68;1.73;;;10.10;99.90;;;;;;4993725;28;20030;-57
2024/02/19 06:30:37;;;;;;;5.53;1.90;;;10.20;99.90;;;;;;4993211;28;20030;-60
2024/02/19 06:33:04;;;;;;;3.78;1.48;;;10.20;99.90;;;;;;4993545;28;20030;-59
2024/02/19 06:35:29;;;;;;;3.88;1.55;;;10.00;99.90;;;;;;4991951;28;20022;-57
2024/02/19 06:37:55;;;;;;;3.60;1.55;;;10.10;99.90;;;;;;4993285;28;20403;-59
2024/02/19 06:40:21;;;;;;;3.53;1.30;;;10.10;99.90;;;;;;4993405;28;20553;-59
2024/02/19 06:42:47;;;;;;;6.70;1.55;;;10.10;99.90;;;;;;4991963;28;20057;-56
2024/02/19 06:45:12;;;;;;;11.88;2.10;;;10.10;99.90;;;;;;4992798;28;20062;-53
2024/02/19 06:47:40;;;;;;;6.90;1.27;;;10.10;99.90;;;;;;4993127;28;20073;-57
2024/02/19 06:50:06;;;;;;;7.35;1.35;;;10.10;99.90;;;;;;4993105;28;20101;-54
2024/02/19 06:52:32;;;;;;;5.43;1.42;;;10.10;99.90;;;;;;4992967;28;20492;-59
2024/02/19 06:54:57;;;;;;;5.30;1.60;;;10.10;99.90;;;;;;4991640;28;20110;-59
2024/02/19 06:57:23;;;;;;;5.82;1.83;;;10.10;99.90;;;;;;4991824;28;20391;-57
2024/02/19 06:59:48;;;;;;;4.55;1.50;;;10.10;99.90;;;;;;4992718;28;20022;-59
2024/02/19 07:02:14;;;;;;;4.40;1.40;;;10.10;99.90;;;;;;4991796;28;20569;-57
2024/02/19 07:04:40;;;;;;;4.07;1.52;;;10.20;99.90;;;;;;4991547;28;20034;-59
2024/02/19 07:07:09;;;;;;;2.05;1.48;;;10.20;99.90;;;;;;4992981;28;20089;-53
2024/02/19 07:09:38;;;;;;;2.80;1.13;;;10.10;99.90;;;;;;4993039;28;20073;-58
2024/02/19 07:12:05;;;;;;;13.45;2.67;;;10.10;99.90;;;;;;4992960;28;20062;-61
2024/02/19 07:14:30;;;;;;;3.15;1.30;;;10.20;99.90;;;;;;4992722;28;20030;-59
2024/02/19 07:16:56;;;;;;;4.20;1.55;;;10.20;99.90;;;;;;4991354;28;20032;-59
2024/02/19 07:19:21;;;;;;;2.78;1.23;;;10.20;99.90;;;;;;4992724;28;20153;-59
2024/02/19 07:21:47;;;;;;;2.72;1.30;;;10.10;99.90;;;;;;4991485;28;20507;-59
2024/02/19 07:24:13;;;;;;;4.20;1.67;;;10.10;99.90;;;;;;4992716;28;20450;-59
2024/02/19 07:26:38;;;;;;;8.07;1.63;;;10.20;99.90;;;;;;4992468;28;20026;-59
2024/02/19 07:29:04;;;;;;;2.78;1.30;;;10.10;99.90;;;;;;4992361;28;20062;-56
2024/02/19 07:31:30;;;;;;;4.25;1.38;;;10.10;99.90;;;;;;4991536;28;20497;-56
2024/02/19 07:33:56;;;;;;;6.93;2.08;;;10.10;99.90;;;;;;4992094;28;20041;-56
2024/02/19 07:36:22;;;;;;;4.15;1.33;;;10.20;99.90;;;;;;4990873;28;20029;-55
2024/02/19 07:38:47;;;;;;;7.63;1.40;;;10.20;99.90;;;;;;4992671;28;20108;-57
2024/02/19 07:41:17;;;;;;;4.15;1.70;;;10.20;99.90;;;;;;4993332;28;20034;-57
2024/02/19 07:43:45;;;;;;;5.13;2.15;;;10.20;99.90;;;;;;4993599;28;20081;-61
2024/02/19 07:46:11;;;;;;;4.43;1.45;;;10.20;99.90;;;;;;4995169;28;20061;-56
2024/02/19 07:48:37;;;;;;;5.93;1.40;;;10.20;99.90;;;;;;4994764;28;20041;-60
2024/02/19 07:51:03;;;;;;;5.63;1.55;;;10.20;99.90;;;;;;4996103;28;20496;-59
2024/02/19 07:53:28;;;;;;;3.05;1.45;;;10.10;99.90;;;;;;4983730;28;20105;-56
2024/02/19 07:56:07;;;;;;;6.00;1.42;;;10.20;99.90;;;;;;4988645;28;20026;-58
2024/02/19 07:58:33;;;;;;;10.82;1.83;;;10.10;99.90;;;;;;4986871;28;20114;-57
2024/02/19 08:00:59;;;;;;;3.40;1.17;;;10.10;99.90;;;;;;4972657;28;20037;-55
2024/02/19 08:03:25;;;;;;;6.32;1.63;;;10.10;99.90;;;;;;4972391;28;20077;-55
2024/02/19 08:05:51;;;;;;;3.97;1.40;;;10.20;99.90;;;;;;4972246;28;20034;-57
2024/02/19 08:08:17;;;;;;;12.15;3.80;;;10.10;99.90;;;;;;4972481;28;20081;-54
2024/02/19 08:10:42;;;;;;;3.15;1.50;;;10.20;99.90;;;;;;4977216;28;20438;-56
2024/02/19 08:13:09;;;;;;;9.90;2.22;;;10.20;99.90;;;;;;4991625;28;20031;-54
2024/02/19 08:15:39;;;;;;;5.00;1.30;;;10.20;99.90;;;;;;4991573;28;20026;-50
2024/02/19 08:18:05;;;;;;;6.35;1.30;;;10.10;99.90;;;;;;4991822;28;20496;-57
2024/02/19 08:20:30;;;;;;;2.38;1.38;;;10.20;99.90;;;;;;4991514;28;20037;-54
2024/02/19 08:22:56;;;;;;;3.42;1.40;;;10.30;99.90;;;;;;4991724;28;20026;-55
2024/02/19 08:25:22;;;;;;;11.07;1.63;;;10.40;99.90;;;;;;4991210;28;20500;-56
2024/02/19 08:27:48;;;;;;;4.03;1.23;;;10.40;99.90;;;;;;4991662;28;20022;-56
2024/02/19 08:30:14;;;;;;;6.10;1.35;;;10.40;99.90;;;;;;4991758;28;20082;-57
2024/02/19 08:32:40;;;;;;;6.45;1.35;;;10.40;99.90;;;;;;4991429;28;20113;-55
2024/02/19 08:35:06;;;;;;;5.25;1.60;;;10.50;99.90;;;;;;4991490;28;20027;-53
2024/02/19 08:37:31;;;;;;;2.47;1.52;;;10.50;99.90;;;;;;5006383;28;20034;-56
2024/02/19 08:39:57;;;;;;;5.22;1.77;;;10.50;99.90;;;;;;4991512;28;20026;-60
2024/02/19 08:42:23;;;;;;;4.13;1.25;;;10.50;99.90;;;;;;4991457;28;20030;-55
2024/02/19 08:44:48;;;;;;;3.97;1.20;;;10.50;99.90;;;;;;4991382;28;20022;-57
2024/02/19 08:47:15;;;;;;;2.90;1.10;;;10.50;99.90;;;;;;4986440;28;20413;-55
2024/02/19 08:49:41;;;;;;;6.57;2.17;;;10.40;99.90;;;;;;4973930;28;20051;-54
2024/02/19 08:52:06;;;;;;;7.53;1.35;;;10.40;99.90;;;;;;4975757;28;20124;-53
2024/02/19 08:54:32;;;;;;;4.38;1.48;;;10.40;99.90;;;;;;4980678;28;20090;-55
2024/02/19 08:57:00;;;;;;;5.25;0.98;;;10.50;99.90;;;;;;4995079;28;20034;-57
2024/02/19 08:59:26;;;;;;;5.28;1.38;;;10.50;99.90;;;;;;4987560;28;20019;-57
2024/02/19 09:01:53;;;;;;;6.47;2.30;;;10.70;99.90;;;;;;4990637;28;20018;-56
2024/02/19 09:04:20;;;;;;;4.53;1.95;;;10.70;99.90;;;;;;4975696;28;20109;-61
2024/02/19 09:06:46;;;;;;;8.13;1.38;;;10.80;99.90;;;;;;4975432;28;20022;-52
2024/02/19 09:09:12;;;;;;;3.70;1.67;;;10.90;99.90;;;;;;4975976;28;20452;-56
2024/02/19 09:11:38;;;;;;;7.47;1.40;;;11.00;99.90;;;;;;4983080;28;20026;-56
2024/02/19 09:14:04;;;;;;;3.08;1.02;;;11.20;99.90;;;;;;5005654;28;20023;-55
2024/02/19 09:16:33;;;;;;;5.97;1.45;;;11.30;99.90;;;;;;4985962;28;20041;-54
2024/02/19 09:18:59;;;;;;;5.85;1.23;;;11.30;99.90;;;;;;4983240;28;20027;-55
2024/02/19 09:21:25;;;;;;;5.88;1.48;;;11.50;99.90;;;;;;4986871;28;20538;-58
2024/02/19 09:23:50;;;;;;;5.07;1.42;;;11.60;99.90;;;;;;4983755;28;20042;-57
2024/02/19 09:26:16;;;;;;;5.68;1.10;;;11.80;99.90;;;;;;4982589;28;20408;-53
2024/02/19 09:28:43;;;;;;;1.85;0.80;;;11.90;99.90;;;;;;4994889;28;20031;-60
2024/02/19 09:31:09;;;;;;;2.47;1.17;;;11.90;99.90;;;;;;4994868;28;20022;-52
2024/02/19 09:33:35;;;;;;;1.23;1.05;;;12.00;99.90;;;;;;4993218;28;20148;-55
2024/02/19 09:36:02;;;;;;;1.48;0.90;;;11.90;99.90;;;;;;4994291;28;20030;-55
2024/02/19 09:38:29;;;;;;;4.70;1.33;;;11.80;99.90;;;;;;4995184;28;20022;-58
2024/02/19 09:40:55;;;;;;;3.33;1.08;;;11.60;99.90;;;;;;4995428;28;20022;-50
2024/02/19 09:43:21;;;;;;;7.30;1.35;;;11.50;99.90;;;;;;4996022;28;20027;-54
2024/02/19 09:45:48;;;;;;;3.25;1.38;;;11.30;99.90;;;;;;4994148;28;20077;-54
2024/02/19 09:48:19;;;;;;;3.97;1.33;;;11.30;99.90;;;;;;4993682;28;20036;-53
2024/02/19 09:50:47;;;;;;;5.15;1.50;;;11.30;99.90;;;;;;4994201;28;20026;-52
2024/02/19 09:53:18;;;;;;;2.90;1.17;;;11.30;99.90;;;;;;4993942;28;20029;-52
2024/02/19 09:55:45;;;;;;;5.50;1.30;;;11.40;99.90;;;;;;4993751;28;20022;-51
2024/02/19 09:58:11;;;;;;;6.35;1.27;;;11.40;99.90;;;;;;4982094;28;20019;-52
2024/02/19 10:00:36;;;;;;;3.75;1.30;;;11.50;99.90;;;;;;4992100;28;20489;-53
2024/02/19 10:03:02;;;;;;;5.32;1.48;;;11.60;99.90;;;;;;4993712;28;20076;-51
2024/02/19 10:05:28;;;;;;;3.13;0.90;;;11.70;99.90;;;;;;4993725;28;20502;-57
2024/02/19 10:07:58;;;;;;;1.95;1.00;;;11.70;99.90;;;;;;4991432;28;20550;-51
2024/02/19 10:10:25;;;;;;;1.70;1.20;;;11.70;99.90;;;;;;5009080;28;20475;-52
2024/02/19 10:12:50;;;;;;;3.45;0.88;;;11.80;99.90;;;;;;4993789;28;20085;-56
2024/02/19 10:15:16;;;;;;;3.72;0.98;;;11.90;99.90;;;;;;4983289;28;20461;-49
2024/02/19 10:17:41;;;;;;;3.33;1.15;;;12.00;99.90;;;;;;4973008;28;20026;-53
2024/02/19 10:20:07;;;;;;;4.43;1.00;;;12.50;99.90;;;;;;4974363;28;20034;-53
2024/02/19 10:22:33;;;;;;;6.85;1.00;;;13.30;99.90;;;;;;4974386;28;20504;-51
2024/02/19 10:25:06;;;;;;;1.73;0.70;;;13.90;99.90;;;;;;5023275;23;20076;-51
2024/02/19 10:27:33;;;;;;;4.03;1.08;;;14.50;99.90;;;;;;5012291;28;20386;-51
2024/02/19 10:29:59;;;;;;;4.18;0.60;;;14.80;99.90;;;;;;5032226;28;20025;-54
2024/02/19 10:32:24;;;;;;;3.92;1.20;;;14.70;99.90;;;;;;5032931;28;20024;-52
2024/02/19 10:34:50;;;;;;;3.38;1.15;;;14.50;99.90;;;;;;5032816;28;20457;-53
2024/02/19 10:37:15;;;;;;;6.43;2.15;;;14.40;99.90;;;;;;5032627;28;20555;-52
2024/02/19 10:39:41;;;;;;;2.17;0.73;;;14.60;99.90;;;;;;5003142;28;20029;-47
2024/02/19 10:42:07;;;;;;;20.17;10.70;;;14.80;99.90;;;;;;5032455;28;20391;-55
2024/02/19 10:44:34;;;;;;;48.25;28.80;;;14.80;99.90;;;;;;5024123;28;20037;-55
2024/02/19 10:47:01;;;;;;;2.22;1.70;;;14.90;99.90;;;;;;5032438;28;20471;-54
2024/02/19 10:49:26;;;;;;;1.52;0.75;;;14.60;99.90;;;;;;5014714;28;20025;-54
2024/02/19 10:51:52;;;;;;;1.23;0.55;;;14.40;99.90;;;;;;5013705;28;20039;-50
2024/02/19 10:54:18;;;;;;;2.15;0.68;;;;;;;;;;5031796;28;20030;-50
2024/02/19 10:56:45;;;;;;;1.75;0.82;;;;;;;;;;5016508;28;20072;-53
2024/02/19 10:59:12;;;;;;;2.28;0.88;;;13.70;99.90;;;;;;5012014;28;20061;-48
2024/02/19 11:01:43;;;;;;;6.22;1.67;;;13.80;99.90;;;;;;5026638;28;20029;-47
2024/02/19 11:04:20;;;;;;;2.17;0.70;;;13.90;99.90;;;;;;5031625;28;20055;-51
2024/02/19 11:06:54;;;;;;;3.38;0.85;;;13.90;99.90;;;;;;5031685;28;20387;-49
2024/02/19 11:09:29;;;;;;;3.03;0.95;;;13.70;99.90;;;;;;5029277;28;20045;-48
2024/02/19 11:11:56;;;;;;;3.05;1.08;;;13.60;99.90;;;;;;5030683;28;20076;-50
2024/02/19 11:14:22;;;;;;;1.98;1.10;;;13.70;99.90;;;;;;5025910;28;20017;-48
2024/02/19 11:16:49;;;;;;;3.25;1.05;;;13.60;99.90;;;;;;5016677;28;20559;-58
2024/02/19 11:19:15;;;;;;;2.38;0.80;;;13.50;99.90;;;;;;5030419;28;20062;-45
2024/02/19 11:21:42;;;;;;;2.28;0.93;;;13.50;99.90;;;;;;5030100;28;20029;-49
2024/02/19 11:24:08;;;;;;;3.70;0.93;;;13.30;99.90;;;;;;5029977;28;20410;-48
2024/02/19 11:26:33;;;;;;;6.28;1.00;;;13.20;99.90;;;;;;5031047;28;20108;-51
2024/02/19 11:28:59;;;;;;;1.35;0.70;;;13.00;99.90;;;;;;5025803;28;20025;-47
2024/02/19 11:31:28;;;;;;;1.70;0.90;;;;;;;;;;5030841;28;20305;-47
2024/02/19 11:33:58;;;;;;;2.88;0.80;;;12.80;99.90;;;;;;5030323;28;20026;-51
2024/02/19 11:36:23;;;;;;;3.50;0.77;;;12.70;99.90;;;;;;5031253;28;20014;-50
2024/02/19 11:38:49;;;;;;;2.80;0.82;;;12.80;99.90;;;;;;5022632;28;20026;-46
2024/02/19 11:41:14;;;;;;;1.30;0.80;;;12.90;99.90;;;;;;5029189;28;20021;-46
2024/02/19 11:43:40;;;;;;;1.70;0.85;;;13.00;99.90;;;;;;5041484;28;20036;-51
2024/02/19 11:46:06;;;;;;;3.50;1.20;;;13.00;99.90;;;;;;5030619;28;20445;-50
2024/02/19 11:48:34;;;;;;;2.25;1.30;;;13.10;99.90;;;;;;5031505;28;20082;-59
2024/02/19 11:51:02;;;;;;;4.07;1.23;;;13.20;99.90;;;;;;5019395;28;20529;-52
2024/02/19 11:53:27;;;;;;;3.13;0.90;;;13.20;99.90;;;;;;5031554;28;20112;-54
2024/02/19 11:56:00;;;;;;;2.53;1.02;;;13.00;99.90;;;;;;5022962;28;20153;-52
2024/02/19 11:58:29;;;;;;;3.30;1.67;;;13.00;99.90;;;;;;5010181;28;20037;-55
2024/02/19 12:00:58;;;;;;;2.58;0.80;;;12.90;99.90;;;;;;5015257;28;20498;-57
2024/02/19 12:03:27;;;;;;;4.07;0.98;;;12.80;99.90;;;;;;5018890;28;20034;-51
2024/02/19 12:05:53;;;;;;;3.92;0.95;;;12.80;99.90;;;;;;5009899;28;20053;-52
2024/02/19 12:08:19;;;;;;;7.32;1.63;;;12.70;99.90;;;;;;5029656;28;20136;-53
2024/02/19 12:10:45;;;;;;;4.07;2.33;;;12.70;99.90;;;;;;5017011;28;20502;-51
2024/02/19 12:13:11;;;;;;;3.00;1.30;;;12.80;99.90;;;;;;5031186;28;20076;-52
2024/02/19 12:15:36;;;;;;;6.68;1.17;;;12.80;99.90;;;;;;5031032;28;20096;-50
2024/02/19 12:18:02;;;;;;;4.47;0.95;;;12.80;99.90;;;;;;5031310;28;20025;-53
2024/02/19 12:20:28;;;;;;;3.72;1.05;;;12.80;99.90;;;;;;5009992;28;20022;-49
2024/02/19 12:22:53;;;;;;;2.83;1.00;;;12.90;99.90;;;;;;5013501;28;20030;-51
2024/02/19 12:25:19;;;;;;;7.10;1.17;;;12.90;99.90;;;;;;5015148;28;20057;-43
2024/02/19 12:27:45;;;;;;;15.85;10.18;;;12.90;99.90;;;;;;5015976;28;20281;-47
2024/02/19 12:30:10;;;;;;;7.30;2.92;;;13.00;99.90;;;;;;5015701;28;20021;-46
2024/02/19 12:32:36;;;;;;;5.00;1.15;;;13.00;99.90;;;;;;5015313;28;20104;-51
2024/02/19 12:35:02;;;;;;;5.63;1.30;;;13.00;99.90;;;;;;5015119;28;20418;-52
2024/02/19 12:37:31;;;;;;;4.10;1.08;;;13.10;99.90;;;;;;5014889;28;20105;-51
2024/02/19 12:39:57;;;;;;;6.53;1.38;;;13.10;99.90;;;;;;5015243;28;20037;-47
2024/02/19 12:42:23;;;;;;;6.00;1.48;;;13.20;99.90;;;;;;5013759;28;20033;-46